D/T METAR WX W/DIR W/SPE G/SPE TEMP DEWP
23/03/19 12:50 EGBJ 231250Z 04007KT 9999 FEW032 12/03 Q1033 NE (40°) 8.1mph 12°C 3°C
23/03/19 12:20 EGBJ 231220Z 05006KT 9999 FEW032 11/03 Q1033 NE (50°) 6.9mph 11°C 3°C
23/03/19 11:50 EGBJ 231150Z 02005KT 9999 FEW031 10/04 Q1033 NNE (20°) 5.8mph 10°C 4°C
23/03/19 11:20 EGBJ 231120Z 04005KT 9999 FEW028 10/03 Q1033 NE (40°) 5.8mph 10°C 3°C
23/03/19 10:50 EGBJ 231050Z 01005KT 9999 FEW028 10/04 Q1033 N (10°) 5.8mph 10°C 4°C
23/03/19 09:50 EGBJ 230950Z 02005KT 9999 FEW030 10/04 Q1033 NNE (20°) 5.8mph 10°C 4°C
23/03/19 09:20 EGBJ 230920Z 02004KT 9999 FEW027 SCT049 10/05 Q1033 NNE (20°) 4.6mph 10°C 5°C
23/03/19 08:50 EGBJ 230850Z 02004KT 9999 FEW032 09/05 Q1033 NNE (20°) 4.6mph 9°C 5°C
22/03/19 18:50 EGBJ 221850Z 21003KT 9999 SCT032 11/07 Q1027 SSW (210°) 3.5mph 11°C 7°C
22/03/19 18:20 EGBJ 221820Z 22004KT 190V250 9999 BKN035 11/08 Q1027 SW (220°) 4.6mph 11°C 8°C
22/03/19 17:50 EGBJ 221750Z 22008KT 9999 BKN035 12/07 Q1026 SW (220°) 9.2mph 12°C 7°C
22/03/19 17:20 EGBJ 221720Z 22009KT 9999 BKN035 12/07 Q1026 SW (220°) 10.4mph 12°C 7°C
22/03/19 16:50 EGBJ 221650Z 22007KT 9999 BKN037 12/07 Q1026 SW (220°) 8.1mph 12°C 7°C
22/03/19 16:20 EGBJ 221620Z 22009KT 9999 BKN035 12/07 Q1026 SW (220°) 10.4mph 12°C 7°C
22/03/19 15:50 EGBJ 221550Z 23008KT 190V260 9999 BKN035 12/07 Q1026 SW (230°) 9.2mph 12°C 7°C
22/03/19 15:20 EGBJ 221520Z 23010KT 9999 BKN030 12/07 Q1026 SW (230°) 11.5mph 12°C 7°C
22/03/19 14:20 EGBJ 221420Z 22012KT 9999 BKN030 12/07 Q1026 SW (220°) 13.8mph 12°C 7°C
22/03/19 13:50 EGBJ 221350Z 23011KT 9999 BKN030 12/07 Q1026 SW (230°) 12.7mph 12°C 7°C
22/03/19 13:20 EGBJ 221320Z 23010KT 190V260 9999 BKN032 12/07 Q1026 SW (230°) 11.5mph 12°C 7°C
22/03/19 12:50 EGBJ 221250Z 23009KT 200V270 9999 BKN028 12/07 Q1027 SW (230°) 10.4mph 12°C 7°C
22/03/19 11:50 EGBJ 221150Z 23009KT 200V270 9999 BKN030 12/07 Q1027 SW (230°) 10.4mph 12°C 7°C
22/03/19 11:20 EGBJ 221120Z 22010KT 180V250 9999 BKN028 12/07 Q1027 SW (220°) 11.5mph 12°C 7°C
22/03/19 10:50 EGBJ 221050Z 24008KT 9999 BKN028 11/07 Q1027 WSW (240°) 9.2mph 11°C 7°C
22/03/19 10:20 EGBJ 221020Z 24009KT 210V280 9999 BKN026 11/07 Q1027 WSW (240°) 10.4mph 11°C 7°C
22/03/19 09:50 EGBJ 220950Z 23008KT 190V260 9999 BKN025 11/07 Q1027 SW (230°) 9.2mph 11°C 7°C
22/03/19 09:20 EGBJ 220920Z 21008KT 9999 FEW018 SCT025 11/07 Q1027 SSW (210°) 9.2mph 11°C 7°C
22/03/19 08:50 EGBJ 220850Z 22008KT 9999 BKN025 10/07 Q1028 SW (220°) 9.2mph 10°C 7°C
22/03/19 08:20 EGBJ 220820Z 22008KT 190V260 9999 FEW020 BKN023 10/07 Q1028 SW (220°) 9.2mph 10°C 7°C
22/03/19 07:50 EGBJ 220750Z 22007KT 9999 BKN020 10/07 Q1028 SW (220°) 8.1mph 10°C 7°C
21/03/19 19:20 EGBJ 211920Z 00000KT 9999 SCT020 12/09 Q1031 N (0°) 12°C 9°C
21/03/19 18:50 EGBJ 211850Z 00000KT 9999 SCT020 13/10 Q1031 N (0°) 13°C 10°C
21/03/19 18:20 EGBJ 211820Z 00000KT 9999 SCT030 12/10 Q1031 N (0°) 12°C 10°C
21/03/19 17:20 EGBJ 211720Z 22002KT 9999 FEW018 BKN024 13/10 Q1031 SW (220°) 2.3mph 13°C 10°C
21/03/19 16:50 EGBJ 211650Z 23002KT 9999 FEW015 BKN022 13/10 Q1031 SW (230°) 2.3mph 13°C 10°C
21/03/19 16:20 EGBJ 211620Z 25002KT 9999 FEW012 SCT018 BKN032 13/10 Q1032 WSW (250°) 2.3mph 13°C 10°C
21/03/19 15:50 EGBJ 211550Z 23003KT 9999 FEW032 BKN045 13/10 Q1032 SW (230°) 3.5mph 13°C 10°C
21/03/19 15:20 EGBJ 211520Z 25003KT 9999 FEW018 SCT025 BKN045 13/10 Q1032 WSW (250°) 3.5mph 13°C 10°C
21/03/19 14:20 EGBJ 211420Z 21002KT 9999 SCT022 BKN025 13/10 Q1032 SSW (210°) 2.3mph 13°C 10°C
21/03/19 13:50 EGBJ 211350Z 20003KT 9999 FEW017 BKN022 13/10 Q1033 SSW (200°) 3.5mph 13°C 10°C
21/03/19 13:20 EGBJ 211320Z 20003KT 9999 FEW014 BKN020 12/10 Q1033 SSW (200°) 3.5mph 12°C 10°C
21/03/19 12:50 EGBJ 211250Z 00000KT 9999 FEW010 BKN016 12/10 Q1033 N (0°) 12°C 10°C
21/03/19 12:20 EGBJ 211220Z 00000KT 9999 FEW009 BKN016 12/09 Q1034 N (0°) 12°C 9°C
21/03/19 11:50 EGBJ 211150Z 00000KT 9999 FEW008 BKN014 11/09 Q1034 N (0°) 11°C 9°C
21/03/19 11:20 EGBJ 211120Z 22002KT 9999 FEW008 BKN014 11/09 Q1034 SW (220°) 2.3mph 11°C 9°C
21/03/19 10:50 EGBJ 211050Z 23003KT 9999 FEW008 BKN012 11/09 Q1034 SW (230°) 3.5mph 11°C 9°C
21/03/19 10:20 EGBJ 211020Z 22004KT 180V250 9999 FEW007 BKN010 11/09 Q1034 SW (220°) 4.6mph 11°C 9°C
21/03/19 09:50 EGBJ 210950Z 00000KT 9000 FEW006 BKN009 11/09 Q1034 N (0°) 11°C 9°C
21/03/19 09:20 EGBJ 210920Z 24003KT 9000 FEW006 BKN009 10/09 Q1034 WSW (240°) 3.5mph 10°C 9°C
21/03/19 08:50 EGBJ 210850Z 26003KT 8000 FEW006 BKN008 09/09 Q1034 W (260°) 3.5mph 9°C 9°C
21/03/19 07:50 EGBJ 210750Z 25003KT 8000 FEW006 BKN010 09/08 Q1033 WSW (250°) 3.5mph 9°C 8°C
20/03/19 19:20 EGBJ 201920Z 22009KT 9999 FEW030 10/08 Q1032 SW (220°) 10.4mph 10°C 8°C
20/03/19 18:20 EGBJ 201820Z 22006KT 180V250 9999 FEW020 11/09 Q1032 SW (220°) 6.9mph 11°C 9°C
20/03/19 17:50 EGBJ 201750Z 21007KT 9999 FEW020 11/09 Q1032 SSW (210°) 8.1mph 11°C 9°C
20/03/19 17:20 EGBJ 201720Z 23009KT 190V260 9999 FEW020 12/09 Q1032 SW (230°) 10.4mph 12°C 9°C
20/03/19 16:50 EGBJ 201650Z 21009KT 9999 FEW022 12/09 Q1031 SSW (210°) 10.4mph 12°C 9°C
20/03/19 16:20 EGBJ 201620Z 21009KT 170V240 9999 FEW020 SCT045 13/09 Q1031 SSW (210°) 10.4mph 13°C 9°C
20/03/19 15:50 EGBJ 201550Z 21009KT 180V240 9999 FEW016 12/09 Q1031 SSW (210°) 10.4mph 12°C 9°C
20/03/19 15:20 EGBJ 201520Z 22010KT 9999 SCT016 13/10 Q1031 SW (220°) 11.5mph 13°C 10°C
20/03/19 14:50 EGBJ 201450Z 22010KT 9999 SCT016 13/09 Q1032 SW (220°) 11.5mph 13°C 9°C
20/03/19 13:50 EGBJ 201350Z 22008KT 190V250 9999 SCT016 12/09 Q1032 SW (220°) 9.2mph 12°C 9°C
20/03/19 13:20 EGBJ 201320Z 21009KT 9999 BKN015 12/09 Q1032 SSW (210°) 10.4mph 12°C 9°C
20/03/19 12:50 EGBJ 201250Z 22008KT 180V250 9999 BKN015 12/09 Q1032 SW (220°) 9.2mph 12°C 9°C
20/03/19 12:20 EGBJ 201220Z 22009KT 190V280 9999 FEW018 BKN020 12/09 Q1032 SW (220°) 10.4mph 12°C 9°C
20/03/19 11:20 EGBJ 201120Z 23007KT 9999 BKN016 11/09 Q1032 SW (230°) 8.1mph 11°C 9°C
20/03/19 10:50 EGBJ 201050Z 22010KT 9999 BKN015 11/09 Q1032 SW (220°) 11.5mph 11°C 9°C
20/03/19 09:50 EGBJ 200950Z 21008KT 9999 BKN013 11/09 Q1032 SSW (210°) 9.2mph 11°C 9°C
20/03/19 09:20 EGBJ 200920Z 22005KT 190V250 9999 FEW010 BKN013 11/08 Q1032 SW (220°) 5.8mph 11°C 8°C
20/03/19 08:50 EGBJ 200850Z 22004KT 9999 FEW009 BKN012 11/09 Q1032 SW (220°) 4.6mph 11°C 9°C
20/03/19 08:20 EGBJ 200820Z 23004KT 9999 FEW009 BKN016 10/09 Q1032 SW (230°) 4.6mph 10°C 9°C
20/03/19 07:50 EGBJ 200750Z 22004KT 190V260 9999 FEW008 BKN017 10/09 Q1031 SW (220°) 4.6mph 10°C 9°C
19/03/19 19:20 EGBJ 191920Z 22006KT 9999 SCT025 10/08 Q1028 SW (220°) 6.9mph 10°C 8°C
19/03/19 18:50 EGBJ 191850Z 22007KT 9999 -SHRA SCT025 10/07 Q1028 -SHRA SW (220°) 8.1mph 10°C 7°C
19/03/19 18:20 EGBJ 191820Z 23006KT 9999 FEW042 11/07 Q1028 SW (230°) 6.9mph 11°C 7°C
19/03/19 17:50 EGBJ 191750Z 22008KT 9999 FEW042 12/07 Q1027 SW (220°) 9.2mph 12°C 7°C
19/03/19 17:20 EGBJ 191720Z 21008KT 9999 FEW038 12/07 Q1027 SSW (210°) 9.2mph 12°C 7°C
19/03/19 16:50 EGBJ 191650Z 22006KT 9999 FEW038 12/07 Q1027 SW (220°) 6.9mph 12°C 7°C
19/03/19 15:50 EGBJ 191550Z 21009KT 9999 FEW036 13/08 Q1026 SSW (210°) 10.4mph 13°C 8°C
19/03/19 15:20 EGBJ 191520Z 21007KT 9999 FEW034 12/08 Q1026 SSW (210°) 8.1mph 12°C 8°C
19/03/19 14:50 EGBJ 191450Z 22008KT 9999 FEW032 SCT042 12/08 Q1027 SW (220°) 9.2mph 12°C 8°C
19/03/19 14:20 EGBJ 191420Z 21009KT 180V250 9999 FEW032 SCT042 12/09 Q1027 SSW (210°) 10.4mph 12°C 9°C
19/03/19 13:50 EGBJ 191350Z 22009KT 9999 FEW028 SCT040 13/09 Q1027 SW (220°) 10.4mph 13°C 9°C
19/03/19 12:50 EGBJ 191250Z 22006KT 9999 FEW026 13/09 Q1027 SW (220°) 6.9mph 13°C 9°C
19/03/19 12:20 EGBJ 191220Z 24005KT 9999 FEW022 SCT032 13/08 Q1027 WSW (240°) 5.8mph 13°C 8°C
19/03/19 11:50 EGBJ 191150Z 21006KT 9999 FEW016 SCT030 12/09 Q1027 SSW (210°) 6.9mph 12°C 9°C
19/03/19 10:50 EGBJ 191050Z 23006KT 9999 SCT015 SCT025 12/09 Q1027 SW (230°) 6.9mph 12°C 9°C
19/03/19 10:20 EGBJ 191020Z 21006KT 190V250 9999 FEW015 SCT028 11/09 Q1027 SSW (210°) 6.9mph 11°C 9°C
19/03/19 09:50 EGBJ 190950Z 23004KT 200V260 9000 FEW012 SCT028 10/09 Q1027 SW (230°) 4.6mph 10°C 9°C
19/03/19 09:20 EGBJ 190920Z 24004KT 8000 FEW012 SCT022 10/09 Q1026 WSW (240°) 4.6mph 10°C 9°C
19/03/19 08:20 EGBJ 190820Z 23004KT 7000 FEW011 09/08 Q1026 SW (230°) 4.6mph 9°C 8°C
19/03/19 07:50 EGBJ 190750Z 23003KT 7000 FEW011 09/08 Q1026 SW (230°) 3.5mph 9°C 8°C
18/03/19 18:50 EGBJ 181850Z 23004KT 9999 FEW030 SCT038 09/07 Q1022 SW (230°) 4.6mph 9°C 7°C
18/03/19 18:20 EGBJ 181820Z 22004KT 9999 FEW030 SCT038 09/07 Q1022 SW (220°) 4.6mph 9°C 7°C
18/03/19 17:50 EGBJ 181750Z 21005KT 9999 FEW030 BKN038 09/07 Q1022 SSW (210°) 5.8mph 9°C 7°C
18/03/19 16:50 EGBJ 181650Z 25004KT 210V290 9999 FEW028 SCT038 10/06 Q1021 WSW (250°) 4.6mph 10°C 6°C
18/03/19 16:20 EGBJ 181620Z 26004KT 9999 VCSH FEW026 SCT029 10/06 Q1021 VCSH W (260°) 4.6mph 10°C 6°C
18/03/19 15:50 EGBJ 181550Z 28002KT 9999 FEW027 SCT030 10/05 Q1021 W (280°) 2.3mph 10°C 5°C
18/03/19 15:20 EGBJ 181520Z 27005KT 9999 FEW027 SCT030 10/05 Q1021 W (270°) 5.8mph 10°C 5°C
18/03/19 14:50 EGBJ 181450Z 28005KT 240V300 9999 -SHRA FEW028 BKN032 10/05 Q1021 -SHRA W (280°) 5.8mph 10°C 5°C
18/03/19 14:20 EGBJ 181420Z 28003KT 9999 -SHRA BKN029 10/05 Q1021 -SHRA W (280°) 3.5mph 10°C 5°C
18/03/19 13:50 EGBJ 181350Z 27004KT 9999 BKN030 10/04 Q1021 W (270°) 4.6mph 10°C 4°C
18/03/19 13:20 EGBJ 181320Z 27005KT 9999 BKN029 10/05 Q1021 W (270°) 5.8mph 10°C 5°C
18/03/19 12:50 EGBJ 181250Z 27005KT 230V300 9999 BKN028 10/04 Q1021 W (270°) 5.8mph 10°C 4°C
18/03/19 12:20 EGBJ 181220Z 25007KT 9999 BKN029 10/04 Q1021 WSW (250°) 8.1mph 10°C 4°C
18/03/19 11:50 EGBJ 181150Z 26006KT 230V300 9999 FEW022 BKN028 10/04 Q1021 W (260°) 6.9mph 10°C 4°C
18/03/19 11:20 EGBJ 181120Z 27005KT 250V310 9999 FEW022 BKN028 10/05 Q1021 W (270°) 5.8mph 10°C 5°C
18/03/19 10:50 EGBJ 181050Z 27005KT 9999 FEW020 SCT028 09/04 Q1021 W (270°) 5.8mph 9°C 4°C
18/03/19 10:20 EGBJ 181020Z 27008KT 9999 FEW018 SCT027 09/04 Q1021 W (270°) 9.2mph 9°C 4°C
18/03/19 08:50 EGBJ 180850Z 24006KT 9999 FEW031 08/05 Q1020 WSW (240°) 6.9mph 8°C 5°C
18/03/19 08:20 EGBJ 180820Z 25004KT 9999 FEW030 07/04 Q1020 WSW (250°) 4.6mph 7°C 4°C
17/03/19 16:50 EGBJ 171650Z 25005KT 9999 -SHRA FEW022 BKN028 06/04 Q1009 -SHRA WSW (250°) 5.8mph 6°C 4°C
17/03/19 16:20 EGBJ 171620Z 27007KT 9999 -SHRA FEW021 BKN027 06/04 Q1008 -SHRA W (270°) 8.1mph 6°C 4°C
17/03/19 15:50 EGBJ 171550Z 27013G23KT 9999 -SHRA FEW018 BKN025 09/00 Q1008 -SHRA W (270°) 15.0mph 26.5mph 9°C 0°C
17/03/19 15:20 EGBJ 171520Z 28011KT 9999 VCSH FEW028 SCT033 09/01 Q1007 VCSH W (280°) 12.7mph 9°C 1°C
17/03/19 14:50 EGBJ 171450Z 28016KT 9999 VCSH FEW028 09/00 Q1007 VCSH W (280°) 18.4mph 9°C 0°C
17/03/19 14:20 EGBJ 171420Z 29013G23KT 9999 -SHRA SCT030 08/M01 Q1007 -SHRA WNW (290°) 15.0mph 26.5mph 8°C -1°C
17/03/19 13:50 EGBJ 171350Z 28017KT 9999 VCSH FEW035 FEW045TCU 09/M01 Q1006 VCSH W (280°) 19.6mph 9°C -1°C
17/03/19 13:20 EGBJ 171320Z 28014KT 250V310 9999 VCSH FEW030 FEW042TCU 09/01 Q1006 VCSH W (280°) 16.1mph 9°C 1°C
17/03/19 12:50 EGBJ 171250Z 28011KT 9999 VCSH FEW030 FEW034CB FEW039TCU 08/00 Q1006 VCSH W (280°) 12.7mph 8°C 0°C
17/03/19 12:20 EGBJ 171220Z 27011KT 9999 VCSH FEW027 FEW033CB FEW038TCU 08/M00 Q1006 VCSH W (270°) 12.7mph 8°C 0°C
17/03/19 11:50 EGBJ 171150Z 27011KT 230V300 9999 VCSH FEW028 FEW032CB FEW040TCU 08/01 Q1006 VCSH W (270°) 12.7mph 8°C 1°C
17/03/19 11:20 EGBJ 171120Z 27011KT 9999 VCSH FEW028 FEW042TCU 08/01 Q1006 VCSH W (270°) 12.7mph 8°C 1°C
17/03/19 10:50 EGBJ 171050Z 29009KT 9999 VCSH SCT025 08/01 Q1006 VCSH WNW (290°) 10.4mph 8°C 1°C
17/03/19 10:20 EGBJ 171020Z 28011KT 9999 VCSH FEW020 SCT025 08/02 Q1005 VCSH W (280°) 12.7mph 8°C 2°C
17/03/19 09:50 EGBJ 170950Z 27012KT 240V310 9999 SCT022 08/02 Q1005 W (270°) 13.8mph 8°C 2°C
17/03/19 09:20 EGBJ 170920Z 27011KT 9999 SCT022 07/01 Q1005 W (270°) 12.7mph 7°C 1°C
17/03/19 08:20 EGBJ 170820Z 24006KT 9999 FEW016 05/02 Q1004 WSW (240°) 6.9mph 5°C 2°C
16/03/19 17:50 EGBJ 161750Z 22017G32KT 190V250 8000 RA SCT009 BKN012 11/09 Q0993 RA SW (220°) 19.6mph 36.8mph 11°C 9°C
16/03/19 17:20 EGBJ 161720Z 22019G30KT 190V250 9000 -RA SCT009 BKN015 11/09 Q0993 -RA SW (220°) 21.9mph 34.5mph 11°C 9°C
16/03/19 16:50 EGBJ 161650Z 22020G35KT 9000 -RADZ SCT010 BKN016 11/08 Q0994 -RA -DZ SW (220°) 23.0mph 40.3mph 11°C 8°C
16/03/19 16:20 EGBJ 161620Z 22020G33KT 9999 SCT012 BKN015 12/08 Q0994 SW (220°) 23.0mph 38.0mph 12°C 8°C
16/03/19 15:20 EGBJ 161520Z 23017KT 190V250 9999 -RA SCT015 BKN019 12/08 Q0995 -RA SW (230°) 19.6mph 12°C 8°C
16/03/19 14:20 EGBJ 161420Z 22022G35KT 200V260 9999 VCSH BKN021 12/07 Q0997 VCSH SW (220°) 25.3mph 40.3mph 12°C 7°C
16/03/19 13:20 EGBJ 161320Z 23020G31KT 200V260 9999 VCSH BKN016 12/07 Q0998 VCSH SW (230°) 23.0mph 35.7mph 12°C 7°C
16/03/19 12:50 EGBJ 161250Z 22025G39KT 190V260 9999 VCSH BKN019 12/07 Q0998 VCSH SW (220°) 28.8mph 44.9mph 12°C 7°C
16/03/19 12:20 EGBJ 161220Z 22026G40KT 9999 BKN019 12/07 Q0998 SW (220°) 29.9mph 46.0mph 12°C 7°C
16/03/19 11:50 EGBJ 161150Z 22025G37KT 9999 BKN019 12/08 Q0998 SW (220°) 28.8mph 42.6mph 12°C 8°C
16/03/19 10:50 EGBJ 161050Z 23021G37KT 9999 BKN018 12/08 Q1000 SW (230°) 24.2mph 42.6mph 12°C 8°C
16/03/19 10:20 EGBJ 161020Z 23018G30KT 190V260 9999 -RA BKN017 11/08 Q1001 -RA SW (230°) 20.7mph 34.5mph 11°C 8°C
16/03/19 09:20 EGBJ 160920Z 23018G31KT 9999 -RA BKN018 10/08 Q1001 -RA SW (230°) 20.7mph 35.7mph 10°C 8°C
16/03/19 08:50 EGBJ 160850Z 23021G38KT 9999 -RA BKN018 10/08 Q1002 -RA SW (230°) 24.2mph 43.7mph 10°C 8°C
15/03/19 19:20 EGBJ 151920Z 26005KT 9999 FEW030 SCT048 10/07 Q1009 W (260°) 5.8mph 10°C 7°C
15/03/19 18:50 EGBJ 151850Z 27005KT 9999 FEW025 SCT045 10/06 Q1009 W (270°) 5.8mph 10°C 6°C
15/03/19 18:20 EGBJ 151820Z 27008KT 9999 FEW025 SCT045 10/07 Q1009 W (270°) 9.2mph 10°C 7°C
15/03/19 17:50 EGBJ 151750Z 28009KT 9999 FEW030 11/07 Q1009 W (280°) 10.4mph 11°C 7°C